Time;durP1;ratioP1;P1;durP2;ratioP2;P2;SDS_P1;SDS_P2;PMS_P1;PMS_P2;Temp;Humidity;BMP_temperature;BMP_pressure;BME280_temperature;BME280_humidity;BME280_pressure;Samples;Min_cycle;Max_cycle;Signal;HPM_P1;HPM_P2
2020/12/18 00:01:26;;;;;;;6.63;6.00;;;6.00;99.90;;;;;;5073960;28;20900;-63
2020/12/18 00:03:52;;;;;;;8.70;6.47;;;6.00;99.90;;;;;;5074162;28;20459;-64
2020/12/18 00:06:19;;;;;;;7.80;6.90;;;6.00;99.90;;;;;;5074013;28;20450;-63
2020/12/18 00:08:46;;;;;;;14.47;6.80;;;6.00;99.90;;;;;;5074066;28;20442;-64
2020/12/18 00:11:20;;;;;;;15.07;8.10;;;6.00;99.90;;;;;;5073926;28;20446;-63
2020/12/18 00:13:47;;;;;;;7.87;6.93;;;6.00;99.90;;;;;;5073987;28;20975;-63
2020/12/18 00:16:14;;;;;;;9.30;6.90;;;6.00;99.90;;;;;;5073735;28;20486;-63
2020/12/18 00:18:40;;;;;;;10.97;7.73;;;6.00;99.90;;;;;;5074034;28;20443;-64
2020/12/18 00:21:06;;;;;;;10.70;8.87;;;5.90;99.90;;;;;;5073736;28;20461;-63
2020/12/18 00:23:33;;;;;;;9.47;7.83;;;5.90;99.90;;;;;;5073505;28;20500;-64
2020/12/18 00:25:59;;;;;;;8.90;7.90;;;5.90;99.90;;;;;;5073761;28;20435;-63
2020/12/18 00:28:26;;;;;;;10.43;7.23;;;5.90;99.90;;;;;;5073598;28;20447;-63
2020/12/18 00:30:53;;;;;;;11.67;7.10;;;5.90;99.90;;;;;;5073442;28;20446;-63
2020/12/18 00:33:19;;;;;;;15.37;8.30;;;5.90;99.90;;;;;;5073355;28;20828;-62
2020/12/18 00:35:45;;;;;;;12.67;7.00;;;5.80;99.90;;;;;;5073326;28;20479;-63
2020/12/18 00:38:11;;;;;;;9.70;8.03;;;5.80;99.90;;;;;;5073467;28;20466;-63
2020/12/18 00:40:38;;;;;;;10.60;8.83;;;5.80;99.90;;;;;;5073083;28;20439;-63
2020/12/18 00:43:04;;;;;;;13.80;10.43;;;5.80;99.90;;;;;;5073254;28;20439;-63
2020/12/18 00:45:31;;;;;;;12.03;8.57;;;5.80;99.90;;;;;;5073297;28;20442;-64
2020/12/18 00:47:57;;;;;;;10.90;8.00;;;5.80;99.90;;;;;;5073260;28;20477;-63
2020/12/18 00:50:23;;;;;;;14.30;7.77;;;5.70;99.90;;;;;;5073071;28;20447;-62
2020/12/18 00:52:50;;;;;;;13.67;8.43;;;5.70;99.90;;;;;;5072981;28;20859;-63
2020/12/18 00:55:16;;;;;;;10.23;8.13;;;5.70;99.90;;;;;;5073034;28;20502;-64
2020/12/18 00:57:42;;;;;;;18.93;8.63;;;5.70;99.90;;;;;;5072870;28;20469;-63
2020/12/18 01:00:09;;;;;;;13.43;9.10;;;5.70;99.90;;;;;;5072591;28;20439;-63
2020/12/18 01:02:36;;;;;;;15.60;9.37;;;5.70;99.90;;;;;;5072799;28;20439;-63
2020/12/18 01:05:02;;;;;;;17.30;8.90;;;5.70;99.90;;;;;;5072845;28;20467;-62
2020/12/18 01:07:29;;;;;;;11.20;8.60;;;5.60;99.90;;;;;;5072777;28;20443;-62
2020/12/18 01:09:55;;;;;;;9.80;7.73;;;5.60;99.90;;;;;;5072415;28;20439;-62
2020/12/18 01:12:21;;;;;;;17.10;9.03;;;5.70;99.90;;;;;;5072688;28;20443;-62
2020/12/18 01:14:47;;;;;;;10.87;7.80;;;5.70;99.90;;;;;;5072383;28;20505;-59
2020/12/18 01:17:14;;;;;;;9.33;7.97;;;5.60;99.90;;;;;;5072402;28;20463;-60
2020/12/18 01:19:41;;;;;;;10.97;8.43;;;5.60;99.90;;;;;;5072497;28;20458;-59
2020/12/18 01:22:08;;;;;;;9.30;8.30;;;5.60;99.90;;;;;;5072381;28;20443;-61
2020/12/18 01:24:34;;;;;;;14.70;8.47;;;5.50;99.90;;;;;;5072270;28;20847;-64
2020/12/18 01:27:00;;;;;;;12.83;9.17;;;5.50;99.90;;;;;;5072500;28;20497;-64
2020/12/18 01:29:26;;;;;;;11.43;8.30;;;5.50;99.90;;;;;;5072616;28;20454;-64
2020/12/18 01:31:53;;;;;;;12.93;8.63;;;5.50;99.90;;;;;;5072348;28;20439;-63
2020/12/18 01:34:19;;;;;;;11.27;7.90;;;5.50;99.90;;;;;;5072537;28;20463;-64
2020/12/18 01:36:46;;;;;;;14.03;8.40;;;5.50;99.90;;;;;;5072622;28;20479;-64
2020/12/18 01:39:12;;;;;;;22.30;9.63;;;5.60;99.90;;;;;;5072411;28;20450;-64
2020/12/18 01:41:39;;;;;;;12.20;8.30;;;5.50;99.90;;;;;;5072857;28;20932;-65
2020/12/18 01:44:05;;;;;;;13.07;8.63;;;5.60;99.90;;;;;;5072857;28;21061;-64
2020/12/18 01:46:31;;;;;;;12.30;8.60;;;5.50;99.90;;;;;;5072944;28;20447;-63
2020/12/18 01:48:58;;;;;;;23.77;8.00;;;5.50;99.90;;;;;;5074355;28;20451;-64
2020/12/18 01:51:25;;;;;;;10.77;8.40;;;5.50;99.90;;;;;;5074438;28;20447;-64
2020/12/18 01:53:54;;;;;;;11.63;8.77;;;5.50;99.90;;;;;;5074991;28;20482;-63
2020/12/18 01:56:22;;;;;;;12.40;7.70;;;5.50;99.90;;;;;;5074842;28;20518;-64
2020/12/18 01:58:51;;;;;;;12.83;8.60;;;5.50;99.90;;;;;;5074829;28;20443;-64
2020/12/18 02:01:17;;;;;;;15.63;8.43;;;5.50;99.90;;;;;;5075091;28;20489;-65
2020/12/18 02:03:43;;;;;;;8.03;7.23;;;5.50;99.90;;;;;;5074847;28;20468;-65
2020/12/18 02:06:14;;;;;;;17.20;8.30;;;5.50;99.90;;;;;;5074947;28;20986;-65
2020/12/18 02:08:42;;;;;;;9.97;8.10;;;5.50;99.90;;;;;;5074746;28;20444;-64
2020/12/18 02:11:11;;;;;;;11.73;8.70;;;5.50;99.90;;;;;;5074807;28;20439;-64
2020/12/18 02:13:37;;;;;;;9.27;7.43;;;5.50;99.90;;;;;;5075476;28;20879;-65
2020/12/18 02:16:03;;;;;;;13.03;7.27;;;5.50;99.90;;;;;;5075127;28;20532;-65
2020/12/18 02:18:31;;;;;;;10.97;9.17;;;5.50;99.90;;;;;;5074949;28;20466;-64
2020/12/18 02:20:57;;;;;;;10.00;8.50;;;5.50;99.90;;;;;;5074386;28;20454;-65
2020/12/18 02:23:26;;;;;;;10.17;8.00;;;5.50;99.90;;;;;;5074846;28;20471;-64
2020/12/18 02:26:15;;;;;;;10.33;8.30;;;5.50;99.90;;;;;;5071467;28;20466;-61
2020/12/18 02:28:43;;;;;;;11.93;9.00;;;5.50;99.90;;;;;;5067185;28;20458;-62
2020/12/18 02:31:10;;;;;;;11.50;9.20;;;5.40;99.90;;;;;;5071382;28;20439;-62
2020/12/18 02:33:36;;;;;;;16.50;9.50;;;5.40;99.90;;;;;;5071343;28;20466;-63
2020/12/18 02:36:03;;;;;;;14.63;8.87;;;5.40;99.90;;;;;;5071424;28;20479;-63
2020/12/18 02:38:30;;;;;;;10.27;8.70;;;5.50;99.90;;;;;;5071528;28;20450;-63
2020/12/18 02:40:57;;;;;;;10.37;9.37;;;5.40;99.90;;;;;;5071321;28;20439;-62
2020/12/18 02:43:26;;;;;;;9.63;8.63;;;5.50;99.90;;;;;;5071251;28;21050;-62
2020/12/18 02:45:52;;;;;;;11.70;8.53;;;5.50;99.90;;;;;;5071358;28;20439;-63
2020/12/18 02:48:18;;;;;;;17.20;9.40;;;5.50;99.90;;;;;;5071597;28;20805;-62
2020/12/18 02:50:46;;;;;;;15.10;10.90;;;5.40;99.90;;;;;;5071004;28;20446;-63
2020/12/18 02:53:14;;;;;;;11.20;9.20;;;5.40;99.90;;;;;;5071331;28;20471;-61
2020/12/18 02:55:40;;;;;;;17.80;9.13;;;5.40;99.90;;;;;;5071389;28;20479;-64
2020/12/18 02:58:07;;;;;;;8.10;7.40;;;5.40;99.90;;;;;;5071330;28;20451;-61
2020/12/18 03:00:35;;;;;;;12.87;8.67;;;5.40;99.90;;;;;;5070948;28;20439;-63
2020/12/18 03:03:02;;;;;;;12.57;9.10;;;5.40;99.90;;;;;;5071120;28;20920;-62
2020/12/18 03:05:29;;;;;;;10.40;9.27;;;5.40;99.90;;;;;;5071143;28;20493;-63
2020/12/18 03:07:55;;;;;;;11.60;7.90;;;5.40;99.90;;;;;;5071208;28;20435;-60
2020/12/18 03:10:21;;;;;;;11.23;10.03;;;5.40;99.90;;;;;;5070959;28;20443;-64
2020/12/18 03:12:47;;;;;;;13.77;10.80;;;5.40;99.90;;;;;;5071216;28;20439;-63
2020/12/18 03:15:14;;;;;;;11.63;9.03;;;5.30;99.90;;;;;;5071071;28;20443;-61
2020/12/18 03:17:41;;;;;;;15.93;9.07;;;5.30;99.90;;;;;;5071123;28;20443;-63
2020/12/18 03:20:07;;;;;;;12.20;8.40;;;5.30;99.90;;;;;;5070935;28;20453;-63
2020/12/18 03:22:36;;;;;;;10.97;8.13;;;5.30;99.90;;;;;;5071065;28;20951;-61
2020/12/18 03:25:03;;;;;;;10.83;9.73;;;5.30;99.90;;;;;;5070811;28;20984;-62
2020/12/18 03:27:29;;;;;;;15.03;8.03;;;5.30;99.90;;;;;;5071083;28;20448;-60
2020/12/18 03:29:56;;;;;;;14.23;8.63;;;5.30;99.90;;;;;;5071459;28;21014;-65
2020/12/18 03:32:22;;;;;;;11.80;7.70;;;5.30;99.90;;;;;;5076107;28;20435;-63
2020/12/18 03:34:49;;;;;;;11.23;8.57;;;5.30;99.90;;;;;;5077189;28;20467;-64
2020/12/18 03:37:15;;;;;;;10.37;8.13;;;5.30;99.90;;;;;;5077075;28;20474;-65
2020/12/18 03:39:42;;;;;;;12.97;8.80;;;5.30;99.90;;;;;;5076548;28;20447;-65
2020/12/18 03:42:08;;;;;;;14.77;8.57;;;5.30;99.90;;;;;;5076761;28;20431;-65
2020/12/18 03:44:34;;;;;;;14.07;8.67;;;5.30;99.90;;;;;;5076589;28;20467;-65
2020/12/18 03:47:00;;;;;;;14.23;8.37;;;5.30;99.90;;;;;;5076632;28;20439;-63
2020/12/18 03:49:26;;;;;;;12.13;9.40;;;5.40;99.90;;;;;;5076422;28;20439;-64
2020/12/18 03:51:53;;;;;;;10.33;8.70;;;5.40;99.90;;;;;;5076001;28;20798;-63
2020/12/18 03:54:20;;;;;;;16.60;11.03;;;5.40;99.90;;;;;;5076639;28;20459;-64
2020/12/18 03:56:46;;;;;;;13.80;10.00;;;5.40;99.90;;;;;;5076206;28;20474;-65
2020/12/18 03:59:12;;;;;;;9.67;8.23;;;5.40;99.90;;;;;;5076135;28;20788;-63
2020/12/18 04:01:38;;;;;;;19.87;9.23;;;5.40;99.90;;;;;;5075652;28;20444;-64
2020/12/18 04:04:05;;;;;;;14.60;10.83;;;5.40;99.90;;;;;;5075698;28;20463;-63
2020/12/18 04:06:31;;;;;;;12.47;7.70;;;5.30;99.90;;;;;;5075750;28;20454;-64
2020/12/18 04:08:58;;;;;;;10.80;8.90;;;5.40;99.90;;;;;;5075730;28;20443;-65
2020/12/18 04:11:24;;;;;;;14.57;9.13;;;5.40;99.90;;;;;;5074820;28;20443;-65
2020/12/18 04:13:50;;;;;;;15.10;9.53;;;5.40;99.90;;;;;;5074867;28;20459;-64
2020/12/18 04:16:17;;;;;;;16.33;8.83;;;5.40;99.90;;;;;;5075465;28;20479;-65
2020/12/18 04:18:43;;;;;;;10.00;8.67;;;5.40;99.90;;;;;;5075063;28;20455;-63
2020/12/18 04:21:09;;;;;;;18.27;8.67;;;5.40;99.90;;;;;;5075306;28;20481;-63
2020/12/18 04:23:36;;;;;;;12.30;8.60;;;5.40;99.90;;;;;;5074862;28;20474;-64
2020/12/18 04:26:03;;;;;;;14.50;7.90;;;5.30;99.90;;;;;;5075339;28;20812;-65
2020/12/18 04:28:29;;;;;;;13.73;8.33;;;5.30;99.90;;;;;;5074883;28;20447;-62
2020/12/18 04:30:56;;;;;;;12.07;10.53;;;5.30;99.90;;;;;;5074906;28;20443;-64
2020/12/18 04:33:22;;;;;;;11.40;8.47;;;5.40;99.90;;;;;;5074874;28;20474;-65
2020/12/18 04:35:48;;;;;;;9.10;8.20;;;5.40;99.90;;;;;;5074659;28;20537;-63
2020/12/18 04:38:14;;;;;;;10.20;8.00;;;5.40;99.90;;;;;;5073605;28;20450;-64
2020/12/18 04:40:41;;;;;;;16.83;9.80;;;5.40;99.90;;;;;;5073417;28;20446;-63
2020/12/18 04:43:08;;;;;;;10.37;8.23;;;5.40;99.90;;;;;;5073012;28;20451;-65
2020/12/18 04:45:35;;;;;;;10.37;8.50;;;5.40;99.90;;;;;;5073575;28;20438;-63
2020/12/18 04:48:05;;;;;;;11.93;9.70;;;5.40;99.90;;;;;;5073600;28;20931;-63
2020/12/18 04:50:32;;;;;;;17.93;8.77;;;5.50;99.90;;;;;;5073298;28;20786;-64
2020/12/18 04:52:58;;;;;;;14.13;8.77;;;5.50;99.90;;;;;;5073355;28;20450;-64
2020/12/18 04:55:27;;;;;;;9.93;7.10;;;5.50;99.90;;;;;;5073160;28;20940;-62
2020/12/18 04:57:56;;;;;;;11.93;8.97;;;5.50;99.90;;;;;;5073146;28;20427;-60
2020/12/18 05:00:23;;;;;;;12.07;7.43;;;5.50;99.90;;;;;;5072764;28;20964;-62
2020/12/18 05:02:52;;;;;;;11.37;8.60;;;5.50;99.90;;;;;;5072944;28;20439;-63
2020/12/18 05:05:18;;;;;;;16.13;9.43;;;5.50;99.90;;;;;;5072823;28;20439;-63
2020/12/18 05:07:44;;;;;;;10.43;9.43;;;5.50;99.90;;;;;;5072646;28;20439;-63
2020/12/18 05:10:10;;;;;;;13.80;9.30;;;5.50;99.90;;;;;;5072552;28;20439;-63
2020/12/18 05:12:37;;;;;;;17.30;9.00;;;5.50;99.90;;;;;;5072496;28;20446;-63
2020/12/18 05:15:04;;;;;;;11.13;9.57;;;5.50;99.90;;;;;;5072447;28;20470;-63
2020/12/18 05:17:31;;;;;;;13.70;9.70;;;5.50;99.90;;;;;;5072521;28;20479;-63
2020/12/18 05:19:58;;;;;;;11.13;8.40;;;5.50;99.90;;;;;;5071970;28;20443;-62
2020/12/18 05:22:25;;;;;;;15.07;8.03;;;5.50;99.90;;;;;;5072463;28;20450;-63
2020/12/18 05:24:53;;;;;;;16.67;9.43;;;5.50;99.90;;;;;;5072335;28;21016;-60
2020/12/18 05:27:21;;;;;;;14.13;9.80;;;5.50;99.90;;;;;;5072315;28;20546;-61
2020/12/18 05:29:49;;;;;;;13.83;9.93;;;5.50;99.90;;;;;;5072156;28;20447;-62
2020/12/18 05:32:16;;;;;;;12.63;9.37;;;5.50;99.90;;;;;;5072180;28;20443;-62
2020/12/18 05:34:44;;;;;;;12.60;9.00;;;5.50;99.90;;;;;;5072167;28;20493;-62
2020/12/18 05:37:13;;;;;;;15.07;10.10;;;5.60;99.90;;;;;;5072215;28;20482;-62
2020/12/18 05:39:40;;;;;;;14.67;8.43;;;5.60;99.90;;;;;;5072151;28;20448;-61
2020/12/18 05:42:07;;;;;;;16.43;8.43;;;5.60;99.90;;;;;;5072128;28;20443;-63
2020/12/18 05:44:33;;;;;;;13.93;9.43;;;5.60;99.90;;;;;;5072181;28;20471;-63
2020/12/18 05:47:05;;;;;;;15.40;9.70;;;5.50;99.90;;;;;;5071835;28;20929;-62
2020/12/18 05:49:33;;;;;;;10.27;8.30;;;5.50;99.90;;;;;;5072155;28;20444;-62
2020/12/18 05:52:03;;;;;;;9.80;7.40;;;5.60;99.90;;;;;;5071886;28;20486;-62
2020/12/18 05:54:33;;;;;;;23.40;8.10;;;5.60;99.90;;;;;;5070866;28;20968;-61
2020/12/18 05:57:09;;;;;;;15.37;7.17;;;5.60;99.90;;;;;;5071718;28;20481;-63
2020/12/18 05:59:40;;;;;;;10.13;8.23;;;5.60;99.90;;;;;;5071747;28;20443;-63
2020/12/18 06:02:11;;;;;;;10.47;7.30;;;5.60;99.90;;;;;;5071777;28;20877;-62
2020/12/18 06:04:37;;;;;;;12.97;6.80;;;5.60;99.90;;;;;;5071789;28;20467;-62
2020/12/18 06:07:06;;;;;;;12.00;7.23;;;5.60;99.90;;;;;;5071819;28;20447;-60
2020/12/18 06:09:35;;;;;;;11.57;6.30;;;5.60;99.90;;;;;;5071550;28;20808;-63
2020/12/18 06:12:07;;;;;;;10.17;7.40;;;5.70;99.90;;;;;;5071766;28;20462;-60
2020/12/18 06:14:33;;;;;;;19.53;8.63;;;5.70;99.90;;;;;;5071618;28;20883;-62
2020/12/18 06:17:06;;;;;;;15.03;6.90;;;5.70;99.90;;;;;;5071645;28;20497;-62
2020/12/18 06:19:37;;;;;;;11.53;7.33;;;5.70;99.90;;;;;;5071789;28;20450;-62
2020/12/18 06:22:07;;;;;;;10.07;6.30;;;5.80;99.90;;;;;;5071493;28;20447;-61
2020/12/18 06:24:39;;;;;;;16.53;6.57;;;5.80;99.90;;;;;;5071315;28;20536;-61
2020/12/18 06:27:07;;;;;;;7.17;6.23;;;5.70;99.90;;;;;;5071513;28;20996;-61
2020/12/18 06:29:34;;;;;;;9.33;6.10;;;5.70;99.90;;;;;;5071211;28;20439;-62
2020/12/18 06:32:20;;;;;;;8.57;6.33;;;5.70;99.90;;;;;;5071460;28;20446;-62
2020/12/18 06:34:47;;;;;;;8.63;6.80;;;5.80;99.90;;;;;;5071487;28;20466;-62
2020/12/18 06:37:26;;;;;;;7.07;6.33;;;5.70;99.90;;;;;;5071102;28;20530;-62
2020/12/18 06:39:53;;;;;;;11.37;6.63;;;5.80;99.90;;;;;;5070778;28;20447;-62
2020/12/18 06:42:21;;;;;;;8.57;6.00;;;5.80;99.90;;;;;;5071281;28;20945;-62
2020/12/18 06:44:49;;;;;;;11.00;5.60;;;5.80;99.90;;;;;;5071301;28;20848;-63
2020/12/18 06:47:18;;;;;;;7.07;6.00;;;5.80;99.90;;;;;;5071365;28;20450;-62
2020/12/18 06:50:07;;;;;;;6.07;5.47;;;5.80;99.90;;;;;;5070924;28;20933;-62
2020/12/18 06:52:52;;;;;;;9.13;6.40;;;5.80;99.90;;;;;;5071505;28;20968;-62
2020/12/18 06:55:40;;;;;;;9.40;7.13;;;5.80;99.90;;;;;;5070189;28;20462;-63
2020/12/18 06:58:15;;;;;;;9.10;6.40;;;5.80;99.90;;;;;;5070032;28;20450;-62
2020/12/18 07:00:49;;;;;;;20.00;9.63;;;5.80;99.90;;;;;;5071620;28;20812;-65
2020/12/18 07:03:38;;;;;;;6.93;6.00;;;5.90;99.90;;;;;;5071762;28;20467;-64
2020/12/18 07:06:07;;;;;;;7.90;6.10;;;5.90;99.90;;;;;;5074029;28;20447;-64
2020/12/18 07:08:35;;;;;;;12.37;5.23;;;5.90;99.90;;;;;;5075604;28;20466;-64
2020/12/18 07:11:04;;;;;;;8.20;5.63;;;5.90;99.90;;;;;;5074035;28;20511;-60
2020/12/18 07:13:32;;;;;;;6.00;5.40;;;5.90;99.90;;;;;;5074539;28;20463;-62
2020/12/18 07:16:02;;;;;;;8.30;5.90;;;5.90;99.90;;;;;;5074468;28;20529;-62
2020/12/18 07:18:29;;;;;;;9.53;6.23;;;5.90;99.90;;;;;;5074656;28;20438;-63
2020/12/18 07:20:57;;;;;;;8.27;5.03;;;5.90;99.90;;;;;;5074409;28;20451;-59
2020/12/18 07:23:26;;;;;;;17.83;6.47;;;6.00;99.90;;;;;;5074231;28;20471;-59
2020/12/18 07:25:54;;;;;;;6.53;4.60;;;6.00;99.90;;;;;;5074475;28;20439;-63
2020/12/18 07:28:21;;;;;;;6.87;5.90;;;6.00;99.90;;;;;;5074156;28;20439;-61
2020/12/18 07:30:48;;;;;;;8.53;4.43;;;6.00;99.90;;;;;;5074714;28;20447;-64
2020/12/18 07:33:16;;;;;;;8.40;5.50;;;6.00;99.90;;;;;;5074825;28;20467;-65
2020/12/18 07:35:44;;;;;;;5.93;5.40;;;6.00;99.90;;;;;;5075446;28;20447;-64
2020/12/18 07:38:16;;;;;;;8.70;5.23;;;6.10;99.90;;;;;;5075439;28;20443;-65
2020/12/18 07:40:42;;;;;;;6.90;6.30;;;6.10;99.90;;;;;;5074903;28;20952;-62
2020/12/18 07:43:12;;;;;;;6.70;4.97;;;6.00;99.90;;;;;;5074175;28;20470;-65
2020/12/18 07:45:40;;;;;;;6.67;5.10;;;6.10;99.90;;;;;;5074509;28;20749;-65
2020/12/18 07:48:15;;;;;;;10.83;5.90;;;6.10;99.90;;;;;;5076627;28;20440;-65
2020/12/18 07:50:55;;;;;;;5.30;4.80;;;6.20;99.90;;;;;;5076195;28;21002;-63
2020/12/18 07:53:21;;;;;;;9.20;6.23;;;6.20;99.90;;;;;;5075368;28;20466;-64
2020/12/18 07:56:08;;;;;;;6.47;5.17;;;6.30;99.90;;;;;;5077083;28;20443;-62
2020/12/18 07:58:44;;;;;;;8.23;5.00;;;6.30;99.90;;;;;;5074009;28;20876;-64
2020/12/18 08:01:12;;;;;;;10.07;5.27;;;6.30;99.90;;;;;;5074703;28;20439;-65
2020/12/18 08:03:42;;;;;;;6.47;5.20;;;6.40;99.90;;;;;;5076352;28;20494;-65
2020/12/18 08:06:14;;;;;;;6.30;5.40;;;6.40;99.90;;;;;;5078249;28;20435;-65
2020/12/18 08:08:40;;;;;;;7.70;6.40;;;6.50;99.90;;;;;;5077866;28;20936;-65
2020/12/18 08:11:13;;;;;;;6.20;5.60;;;6.60;99.90;;;;;;5077653;28;20508;-65
2020/12/18 08:13:41;;;;;;;5.23;4.67;;;6.60;99.90;;;;;;5078503;28;20467;-65
2020/12/18 08:16:09;;;;;;;7.47;4.50;;;6.70;99.90;;;;;;5073818;28;20536;-63
2020/12/18 08:18:36;;;;;;;5.80;4.87;;;6.70;99.90;;;;;;5076302;28;20441;-63
2020/12/18 08:21:03;;;;;;;12.23;5.50;;;6.80;99.90;;;;;;5075453;28;20444;-64
2020/12/18 08:23:36;;;;;;;9.53;5.00;;;6.80;99.90;;;;;;5076038;28;20996;-67
2020/12/18 08:26:04;;;;;;;11.43;4.63;;;6.90;99.90;;;;;;5077622;28;20846;-65
2020/12/18 08:28:32;;;;;;;8.40;4.60;;;7.00;99.90;;;;;;5079226;28;20444;-66
2020/12/18 08:31:05;;;;;;;10.93;5.40;;;7.10;99.90;;;;;;5077738;28;20440;-63
2020/12/18 08:33:36;;;;;;;6.67;4.87;;;7.20;99.90;;;;;;5073188;28;20471;-63
2020/12/18 08:36:03;;;;;;;4.80;4.27;;;7.30;99.90;;;;;;5073495;28;21083;-65
2020/12/18 08:38:30;;;;;;;9.10;6.30;;;7.30;99.90;;;;;;5076689;28;20504;-66
2020/12/18 08:40:57;;;;;;;6.80;5.87;;;7.40;99.90;;;;;;5078476;28;20510;-65
2020/12/18 08:43:23;;;;;;;8.20;5.50;;;7.40;99.90;;;;;;5078181;28;20460;-66
2020/12/18 08:45:50;;;;;;;5.50;4.73;;;7.50;99.90;;;;;;5076518;28;20439;-62
2020/12/18 08:48:20;;;;;;;8.73;5.73;;;7.60;99.90;;;;;;5072949;28;20462;-65
2020/12/18 08:50:48;;;;;;;4.70;4.30;;;7.60;99.90;;;;;;5072629;28;20604;-64
2020/12/18 08:53:15;;;;;;;7.33;5.37;;;7.60;99.90;;;;;;5072698;28;20459;-62
2020/12/18 08:55:42;;;;;;;5.43;5.03;;;7.70;99.90;;;;;;5072769;28;20439;-64
2020/12/18 08:58:09;;;;;;;16.93;6.60;;;7.70;99.90;;;;;;5075351;28;20435;-65
2020/12/18 09:00:36;;;;;;;5.77;4.93;;;7.80;99.90;;;;;;5077993;28;20447;-65
2020/12/18 09:03:02;;;;;;;7.30;5.47;;;7.80;99.90;;;;;;5077425;28;20956;-64
2020/12/18 09:05:30;;;;;;;10.07;6.60;;;7.80;99.90;;;;;;5077759;28;20490;-65
2020/12/18 09:07:59;;;;;;;5.40;4.90;;;7.90;99.90;;;;;;5077006;28;20451;-64
2020/12/18 09:10:40;;;;;;;7.10;5.73;;;8.00;99.90;;;;;;5073320;28;20456;-65
2020/12/18 09:13:19;;;;;;;8.13;4.77;;;8.00;99.90;;;;;;5072570;28;20435;-64
2020/12/18 09:15:48;;;;;;;8.10;6.50;;;8.00;99.90;;;;;;5072481;28;20444;-63
2020/12/18 09:18:15;;;;;;;11.30;7.07;;;8.10;99.90;;;;;;5072490;28;20443;-62
2020/12/18 09:20:44;;;;;;;5.70;5.20;;;8.10;99.90;;;;;;5071952;28;20790;-63
2020/12/18 09:23:12;;;;;;;7.23;5.10;;;8.20;99.90;;;;;;5072267;28;20479;-63
2020/12/18 09:25:40;;;;;;;7.20;6.47;;;8.30;99.90;;;;;;5072352;28;20443;-65
2020/12/18 09:28:11;;;;;;;8.60;6.23;;;8.30;99.90;;;;;;5072066;28;20455;-64
2020/12/18 09:30:38;;;;;;;5.83;5.33;;;8.40;99.90;;;;;;5072469;28;20989;-64
2020/12/18 09:33:16;;;;;;;7.23;5.50;;;8.40;99.90;;;;;;5072316;28;20820;-62
2020/12/18 09:35:43;;;;;;;6.80;6.30;;;8.50;99.90;;;;;;5071896;28;20899;-62
2020/12/18 09:38:10;;;;;;;8.30;5.80;;;8.50;99.90;;;;;;5072038;28;20443;-64
2020/12/18 09:40:37;;;;;;;7.53;6.10;;;8.50;99.90;;;;;;5071576;28;20805;-62
2020/12/18 09:43:04;;;;;;;8.03;5.63;;;8.60;99.90;;;;;;5071882;28;20444;-63
2020/12/18 09:45:30;;;;;;;9.83;6.20;;;8.60;99.90;;;;;;5071880;28;20813;-63
2020/12/18 09:47:56;;;;;;;9.37;6.23;;;8.60;99.90;;;;;;5071790;28;20440;-63
2020/12/18 09:50:23;;;;;;;7.80;6.50;;;8.70;99.90;;;;;;5071559;28;20450;-63
2020/12/18 09:52:50;;;;;;;9.43;6.70;;;8.80;99.90;;;;;;5071653;28;20928;-63
2020/12/18 09:55:16;;;;;;;7.80;6.40;;;8.80;99.90;;;;;;5071649;28;20442;-63
2020/12/18 09:57:43;;;;;;;6.07;5.53;;;9.00;99.90;;;;;;5071776;28;20536;-63
2020/12/18 10:00:09;;;;;;;8.00;7.40;;;9.10;99.90;;;;;;5071639;28;20961;-64
2020/12/18 10:02:36;;;;;;;6.73;6.13;;;9.20;99.90;;;;;;5071728;28;20448;-65
2020/12/18 10:05:03;;;;;;;7.80;7.10;;;9.40;99.90;;;;;;5071703;28;20467;-65
2020/12/18 10:07:29;;;;;;;7.03;5.90;;;9.50;99.90;;;;;;5071652;28;20863;-64
2020/12/18 10:09:56;;;;;;;7.60;7.00;;;9.60;99.90;;;;;;5071476;28;20462;-65
2020/12/18 10:12:22;;;;;;;9.50;7.70;;;9.70;99.90;;;;;;5071541;28;20453;-64
2020/12/18 10:14:49;;;;;;;7.93;7.37;;;9.70;99.90;;;;;;5071416;28;20465;-63
2020/12/18 10:17:15;;;;;;;10.03;9.30;;;9.80;99.90;;;;;;5071313;28;20544;-63
2020/12/18 10:19:41;;;;;;;8.67;8.17;;;9.90;99.90;;;;;;5071165;28;20512;-62
2020/12/18 10:22:08;;;;;;;8.60;8.10;;;10.00;99.90;;;;;;5071379;28;20439;-63
2020/12/18 10:24:34;;;;;;;10.30;9.40;;;10.10;99.90;;;;;;5071058;28;20471;-62
2020/12/18 10:27:01;;;;;;;9.33;8.90;;;10.20;99.90;;;;;;5071305;28;20450;-64
2020/12/18 10:29:27;;;;;;;10.53;9.93;;;10.20;99.90;;;;;;5071485;28;20508;-64
2020/12/18 10:31:55;;;;;;;10.03;9.33;;;10.20;99.90;;;;;;5071323;28;20454;-63
2020/12/18 10:34:21;;;;;;;9.97;9.47;;;10.30;99.90;;;;;;5071266;28;21052;-63
2020/12/18 10:36:51;;;;;;;9.90;9.30;;;10.30;99.90;;;;;;5072192;28;20486;-64
2020/12/18 10:39:18;;;;;;;11.10;10.50;;;10.40;99.90;;;;;;5073024;28;20447;-65
2020/12/18 10:41:44;;;;;;;11.67;10.77;;;10.50;99.90;;;;;;5076946;28;20435;-65
2020/12/18 10:44:11;;;;;;;12.17;11.37;;;10.70;99.90;;;;;;5077091;28;20467;-64
2020/12/18 10:46:40;;;;;;;12.17;11.47;;;11.00;99.90;;;;;;5077310;28;20489;-64
2020/12/18 10:49:07;;;;;;;12.00;11.30;;;11.20;99.90;;;;;;5077016;28;20818;-64
2020/12/18 10:51:37;;;;;;;11.90;11.10;;;11.40;99.90;;;;;;5077108;28;20447;-62
2020/12/18 10:54:03;;;;;;;13.30;12.37;;;11.60;99.90;;;;;;5078480;28;20462;-64
2020/12/18 10:56:30;;;;;;;14.10;13.30;;;11.90;99.90;;;;;;5078794;28;20529;-65
2020/12/18 10:58:56;;;;;;;13.57;12.97;;;12.10;99.90;;;;;;5077137;28;20439;-66
2020/12/18 11:01:23;;;;;;;14.37;13.60;;;12.40;99.90;;;;;;5076907;28;20443;-65
2020/12/18 11:03:49;;;;;;;14.43;13.67;;;12.60;99.90;;;;;;5075381;28;20544;-63
2020/12/18 11:06:16;;;;;;;14.80;14.10;;;12.90;99.90;;;;;;5076736;28;20447;-66
2020/12/18 11:08:42;;;;;;;15.70;14.93;;;13.10;99.90;;;;;;5075472;28;20534;-65
2020/12/18 11:11:12;;;;;;;15.67;14.87;;;13.30;99.90;;;;;;5075541;28;20810;-65
2020/12/18 11:13:39;;;;;;;17.57;16.47;;;13.50;99.90;;;;;;5075026;28;20523;-64
2020/12/18 11:16:05;;;;;;;16.67;15.90;;;13.90;99.90;;;;;;5074516;28;20919;-63
2020/12/18 11:18:34;;;;;;;16.90;16.10;;;14.00;99.00;;;;;;5074648;28;20439;-62
2020/12/18 11:21:01;;;;;;;17.47;16.47;;;14.40;97.90;;;;;;5074226;28;20474;-62
2020/12/18 11:23:28;;;;;;;17.63;16.83;;;14.80;96.40;;;;;;5074278;28;20980;-62
2020/12/18 11:25:54;;;;;;;18.53;17.73;;;15.00;94.70;;;;;;5074376;28;20473;-63
2020/12/18 11:28:20;;;;;;;17.63;16.83;;;15.50;93.20;;;;;;5074269;28;20442;-61
2020/12/18 11:30:46;;;;;;;18.20;17.40;;;16.00;91.10;;;;;;5074095;28;20439;-64
2020/12/18 11:33:13;;;;;;;17.80;17.10;;;16.30;86.50;;;;;;5074246;28;20466;-63
2020/12/18 11:35:40;;;;;;;17.20;16.50;;;16.30;83.40;;;;;;5074181;28;20493;-63
2020/12/18 11:38:06;;;;;;;18.27;17.37;;;16.80;82.20;;;;;;5074133;28;20532;-63
2020/12/18 11:40:33;;;;;;;18.40;17.60;;;17.00;78.60;;;;;;5073894;28;20447;-64
2020/12/18 11:42:59;;;;;;;18.40;17.80;;;16.80;77.40;;;;;;5074967;28;20443;-66
2020/12/18 11:45:25;;;;;;;18.13;17.33;;;17.10;75.90;;;;;;5074924;28;20802;-65
2020/12/18 11:47:52;;;;;;;18.50;17.73;;;17.20;74.40;;;;;;5075027;28;20863;-66
2020/12/18 11:50:18;;;;;;;19.13;18.23;;;17.40;73.20;;;;;;5074543;28;20500;-65
2020/12/18 11:52:45;;;;;;;18.70;17.80;;;17.60;71.30;;;;;;5073859;28;20439;-65
2020/12/18 11:55:11;;;;;;;19.13;18.03;;;17.60;70.70;;;;;;5074509;28;20466;-64
2020/12/18 11:57:38;;;;;;;18.63;17.93;;;17.70;68.10;;;;;;5074681;28;20482;-66
2020/12/18 12:00:04;;;;;;;18.10;17.40;;;17.50;68.90;;;;;;5073791;28;20925;-62
2020/12/18 12:02:33;;;;;;;19.70;18.57;;;17.10;69.10;;;;;;5073838;28;20443;-63
2020/12/18 12:04:59;;;;;;;19.80;18.90;;;17.30;69.10;;;;;;5073690;28;20504;-64
2020/12/18 12:07:25;;;;;;;19.50;18.60;;;17.50;69.50;;;;;;5074462;28;20436;-65
2020/12/18 12:09:53;;;;;;;19.57;18.50;;;17.30;68.80;;;;;;5073916;28;20444;-65
2020/12/18 12:12:19;;;;;;;20.43;18.30;;;17.10;69.30;;;;;;5073883;28;20443;-66
2020/12/18 12:14:45;;;;;;;18.63;17.93;;;17.40;70.10;;;;;;5074095;28;20469;-65
2020/12/18 12:17:11;;;;;;;18.93;18.13;;;18.10;67.80;;;;;;5073688;28;20537;-65
2020/12/18 12:19:38;;;;;;;19.47;18.40;;;18.90;65.60;;;;;;5073887;28;20454;-65
2020/12/18 12:22:04;;;;;;;20.57;19.47;;;19.30;62.90;;;;;;5073979;28;20439;-65
2020/12/18 12:24:30;;;;;;;22.27;21.10;;;19.30;61.70;;;;;;5074223;28;20508;-65
2020/12/18 12:26:57;;;;;;;20.17;19.37;;;19.70;60.40;;;;;;5073748;28;20443;-63
2020/12/18 12:29:23;;;;;;;20.77;19.67;;;20.10;59.30;;;;;;5073429;28;20435;-63
2020/12/18 12:31:50;;;;;;;19.83;19.00;;;20.30;58.00;;;;;;5073158;28;20443;-63
2020/12/18 12:34:16;;;;;;;20.00;19.00;;;19.20;57.90;;;;;;5073153;28;20470;-64
2020/12/18 12:36:42;;;;;;;20.43;19.53;;;18.60;59.10;;;;;;5072893;28;20482;-64
2020/12/18 12:39:08;;;;;;;20.37;19.50;;;18.40;60.50;;;;;;5073016;28;20444;-64
2020/12/18 12:41:35;;;;;;;19.80;19.00;;;18.70;60.00;;;;;;5072447;28;20810;-63
2020/12/18 12:44:02;;;;;;;19.70;18.90;;;18.60;59.70;;;;;;5072803;28;20524;-63
2020/12/18 12:46:28;;;;;;;21.10;20.00;;;17.60;60.40;;;;;;5072830;28;20445;-63
2020/12/18 12:48:54;;;;;;;19.07;18.13;;;17.10;63.10;;;;;;5072797;28;20451;-62